Time;durP1;ratioP1;P1;durP2;ratioP2;P2;SDS_P1;SDS_P2;PMS_P1;PMS_P2;Temp;Humidity;BMP_temperature;BMP_pressure;BME280_temperature;BME280_humidity;BME280_pressure;Samples;Min_cycle;Max_cycle;Signal;HPM_P1;HPM_P2
2021/08/22 00:01:52;;;;;;;2.10;1.90;;;21.90;72.00;;;;;;5150729;27;20419;-48
2021/08/22 00:04:18;;;;;;;2.28;2.08;;;21.90;71.30;;;;;;5152601;27;20058;-48
2021/08/22 00:06:44;;;;;;;3.22;2.45;;;21.80;71.20;;;;;;5151637;27;20042;-50
2021/08/22 00:09:09;;;;;;;2.97;2.25;;;21.80;71.20;;;;;;5152470;27;20051;-49
2021/08/22 00:11:35;;;;;;;2.50;2.30;;;21.80;71.20;;;;;;5153224;27;20505;-50
2021/08/22 00:14:02;;;;;;;2.63;2.20;;;21.90;71.30;;;;;;5152543;27;20050;-47
2021/08/22 00:16:28;;;;;;;2.67;2.33;;;21.80;71.20;;;;;;5151810;27;20114;-48
2021/08/22 00:18:54;;;;;;;2.85;2.55;;;21.90;71.30;;;;;;5152492;27;20050;-47
2021/08/22 00:21:19;;;;;;;2.60;2.40;;;21.90;71.30;;;;;;5153501;27;20058;-50
2021/08/22 00:23:45;;;;;;;2.75;2.50;;;21.80;71.30;;;;;;5152201;27;20502;-50
2021/08/22 00:26:11;;;;;;;2.60;2.40;;;21.90;71.30;;;;;;5151340;27;20046;-49
2021/08/22 00:28:36;;;;;;;2.60;2.38;;;21.80;71.30;;;;;;5151386;27;20039;-44
2021/08/22 00:31:02;;;;;;;2.45;2.20;;;21.80;71.30;;;;;;5150257;27;20051;-46
2021/08/22 00:33:28;;;;;;;2.88;2.47;;;21.90;71.40;;;;;;5152096;27;20057;-50
2021/08/22 00:35:54;;;;;;;2.53;2.20;;;21.80;71.30;;;;;;5153586;27;20115;-47
2021/08/22 00:38:19;;;;;;;3.38;2.50;;;21.80;71.30;;;;;;5156640;27;20133;-49
2021/08/22 00:40:48;;;;;;;3.03;2.60;;;21.80;71.30;;;;;;5156494;27;20043;-46
2021/08/22 00:43:14;;;;;;;3.08;2.63;;;21.80;71.30;;;;;;5156602;27;20042;-46
2021/08/22 00:45:41;;;;;;;2.97;2.00;;;21.80;71.30;;;;;;5157371;27;20142;-48
2021/08/22 00:48:07;;;;;;;3.08;2.55;;;21.80;71.30;;;;;;5136633;27;20050;-50
2021/08/22 00:50:34;;;;;;;3.10;2.80;;;21.80;71.30;;;;;;5156689;27;20041;-45
2021/08/22 00:53:05;;;;;;;2.63;2.42;;;21.80;71.30;;;;;;5154019;27;20055;-46
2021/08/22 00:55:32;;;;;;;2.80;2.50;;;21.80;71.40;;;;;;5156325;27;20066;-45
2021/08/22 00:57:58;;;;;;;3.03;2.70;;;21.80;71.30;;;;;;5155023;27;20043;-46
2021/08/22 01:00:24;;;;;;;3.75;2.60;;;21.80;71.40;;;;;;5156097;27;20065;-47
2021/08/22 01:03:06;;;;;;;3.38;2.50;;;21.80;71.40;;;;;;5155445;27;20060;-46
2021/08/22 01:05:44;;;;;;;3.15;2.72;;;21.80;71.40;;;;;;5156119;27;20043;-47
2021/08/22 01:08:25;;;;;;;3.65;2.67;;;21.80;71.40;;;;;;5154488;27;20046;-46
2021/08/22 01:11:03;;;;;;;3.83;3.05;;;21.80;71.40;;;;;;5154924;27;20050;-46
2021/08/22 01:13:35;;;;;;;3.30;2.90;;;21.80;71.40;;;;;;5155755;27;20058;-47
2021/08/22 01:16:04;;;;;;;3.10;2.40;;;21.80;71.40;;;;;;5154504;27;20047;-46
2021/08/22 01:18:30;;;;;;;2.72;2.42;;;21.80;71.40;;;;;;5155195;27;20049;-44
2021/08/22 01:21:18;;;;;;;3.33;3.00;;;21.80;71.40;;;;;;5152927;27;20062;-48
2021/08/22 01:23:47;;;;;;;2.65;2.40;;;21.80;71.40;;;;;;5154678;27;20076;-47
2021/08/22 01:26:15;;;;;;;3.47;2.60;;;21.80;71.40;;;;;;5155067;27;20061;-45
2021/08/22 01:28:43;;;;;;;3.33;3.03;;;21.80;71.50;;;;;;5137017;27;20440;-48
2021/08/22 01:31:15;;;;;;;3.00;2.60;;;21.80;71.40;;;;;;5153449;27;20043;-49
2021/08/22 01:33:42;;;;;;;3.15;2.85;;;21.80;71.40;;;;;;5153937;27;20399;-50
2021/08/22 01:36:12;;;;;;;3.30;3.00;;;21.80;71.50;;;;;;5156404;27;20042;-47
2021/08/22 01:38:39;;;;;;;2.75;2.45;;;21.80;71.50;;;;;;5153334;27;20047;-49
2021/08/22 01:41:08;;;;;;;3.10;2.45;;;21.80;71.50;;;;;;5154056;27;20443;-45
2021/08/22 01:43:35;;;;;;;3.95;3.00;;;21.70;71.40;;;;;;5153752;27;20398;-45
2021/08/22 01:46:02;;;;;;;3.10;2.75;;;21.80;71.50;;;;;;5154605;27;20041;-46
2021/08/22 01:48:29;;;;;;;3.53;3.00;;;21.80;71.40;;;;;;5153836;27;20043;-46
2021/08/22 01:50:59;;;;;;;3.88;3.33;;;21.80;71.50;;;;;;5131517;27;20051;-48
2021/08/22 01:53:28;;;;;;;3.45;3.15;;;21.80;71.40;;;;;;5153867;27;20091;-48
2021/08/22 01:55:53;;;;;;;3.13;2.83;;;21.80;71.50;;;;;;5155324;27;20490;-46
2021/08/22 01:58:21;;;;;;;3.67;3.05;;;21.80;71.50;;;;;;5155457;27;20081;-47
2021/08/22 02:00:51;;;;;;;3.55;3.03;;;21.80;71.50;;;;;;5154796;27;20039;-49
2021/08/22 02:03:28;;;;;;;3.47;3.17;;;21.80;71.50;;;;;;5152617;27;20035;-50
2021/08/22 02:05:58;;;;;;;3.47;3.15;;;21.80;71.50;;;;;;5155274;27;20069;-49
2021/08/22 02:08:28;;;;;;;3.38;3.08;;;21.80;71.50;;;;;;5155409;27;20133;-49
2021/08/22 02:11:11;;;;;;;4.07;3.00;;;21.80;71.50;;;;;;5154971;27;20058;-48
2021/08/22 02:13:39;;;;;;;4.20;3.05;;;21.70;71.40;;;;;;5150675;27;20038;-49
2021/08/22 02:16:07;;;;;;;3.33;2.92;;;21.80;71.50;;;;;;5154573;27;20122;-49
2021/08/22 02:18:38;;;;;;;3.25;2.95;;;21.70;71.50;;;;;;5154649;27;20051;-45
2021/08/22 02:21:05;;;;;;;3.75;3.30;;;21.70;71.40;;;;;;5155083;27;20046;-47
2021/08/22 02:23:32;;;;;;;3.83;3.42;;;21.80;71.50;;;;;;5154675;27;20050;-47
2021/08/22 02:25:58;;;;;;;3.60;3.22;;;21.70;71.50;;;;;;5151497;27;20042;-48
2021/08/22 02:28:24;;;;;;;3.38;2.97;;;21.70;71.50;;;;;;5154829;27;20103;-47
2021/08/22 02:30:51;;;;;;;3.58;3.00;;;21.70;71.50;;;;;;5153218;27;20050;-47
2021/08/22 02:33:17;;;;;;;3.50;3.20;;;21.80;71.50;;;;;;5151285;27;20038;-47
2021/08/22 02:35:43;;;;;;;3.95;3.10;;;21.70;71.50;;;;;;5152705;27;20490;-49
2021/08/22 02:38:09;;;;;;;3.30;2.95;;;21.80;71.60;;;;;;5155057;27;20179;-48
2021/08/22 02:40:34;;;;;;;3.17;2.70;;;21.70;71.50;;;;;;5154024;27;20070;-47
2021/08/22 02:43:00;;;;;;;3.50;3.20;;;21.70;71.50;;;;;;5154243;27;20375;-49
2021/08/22 02:45:27;;;;;;;3.25;2.72;;;21.80;71.50;;;;;;5154283;27;20049;-50
2021/08/22 02:47:58;;;;;;;4.22;2.75;;;21.80;71.60;;;;;;5152058;27;20076;-49
2021/08/22 02:50:26;;;;;;;3.17;2.88;;;21.70;71.50;;;;;;5151662;27;20038;-49
2021/08/22 02:52:52;;;;;;;3.50;2.88;;;21.70;71.50;;;;;;5154302;27;20383;-49
2021/08/22 02:55:18;;;;;;;3.80;3.20;;;21.70;71.50;;;;;;5155166;27;20046;-49
2021/08/22 02:57:43;;;;;;;3.88;3.22;;;21.70;71.50;;;;;;5152393;27;20035;-45
2021/08/22 03:00:10;;;;;;;2.70;2.40;;;21.80;71.60;;;;;;5154282;27;20478;-47
2021/08/22 03:02:36;;;;;;;3.42;2.60;;;21.70;71.50;;;;;;5151399;27;20046;-45
2021/08/22 03:05:02;;;;;;;3.80;2.85;;;21.70;71.50;;;;;;5132492;27;20584;-46
2021/08/22 03:07:28;;;;;;;3.25;2.85;;;21.70;71.50;;;;;;5153488;27;20038;-48
2021/08/22 03:09:54;;;;;;;3.58;2.95;;;21.70;71.50;;;;;;5154216;27;20134;-46
2021/08/22 03:12:20;;;;;;;2.92;2.63;;;21.70;71.50;;;;;;5153646;27;20046;-46
2021/08/22 03:14:46;;;;;;;3.10;2.75;;;21.70;71.50;;;;;;5154293;27;20039;-45
2021/08/22 03:17:11;;;;;;;3.40;2.72;;;21.70;71.50;;;;;;5152535;27;20055;-46
2021/08/22 03:19:38;;;;;;;3.75;3.22;;;21.70;71.50;;;;;;5149967;27;20406;-43
2021/08/22 03:22:04;;;;;;;3.00;2.50;;;21.70;71.50;;;;;;5153588;27;20073;-44
2021/08/22 03:24:30;;;;;;;3.35;2.85;;;21.70;71.50;;;;;;5154369;27;20474;-47
2021/08/22 03:26:56;;;;;;;3.28;2.80;;;21.70;71.50;;;;;;5152978;27;20046;-47
2021/08/22 03:29:21;;;;;;;2.97;2.67;;;21.70;71.50;;;;;;5152596;27;20039;-46
2021/08/22 03:31:47;;;;;;;3.05;2.70;;;21.70;71.60;;;;;;5152091;27;20924;-45
2021/08/22 03:34:13;;;;;;;2.90;2.60;;;21.70;71.50;;;;;;5153768;27;20043;-45
2021/08/22 03:36:38;;;;;;;3.58;2.65;;;21.70;71.60;;;;;;5152345;27;20498;-48
2021/08/22 03:39:05;;;;;;;3.30;2.42;;;21.70;71.60;;;;;;5153145;27;20046;-42
2021/08/22 03:41:33;;;;;;;4.03;2.90;;;21.70;71.50;;;;;;5153392;27;20034;-45
2021/08/22 03:43:59;;;;;;;3.15;2.85;;;21.70;71.50;;;;;;5151407;27;20050;-45
2021/08/22 03:46:25;;;;;;;2.85;2.50;;;21.70;71.60;;;;;;5153721;27;20486;-46
2021/08/22 03:48:50;;;;;;;3.08;2.65;;;21.70;71.50;;;;;;5146474;27;20066;-47
2021/08/22 03:51:16;;;;;;;3.33;2.63;;;21.70;71.60;;;;;;5150279;27;20051;-48
2021/08/22 03:53:42;;;;;;;3.83;2.53;;;21.70;71.60;;;;;;5152168;27;20043;-45
2021/08/22 03:56:08;;;;;;;3.60;2.80;;;21.70;71.60;;;;;;5153965;27;20043;-46
2021/08/22 03:58:34;;;;;;;2.80;2.60;;;21.70;71.60;;;;;;5152251;27;20486;-48
2021/08/22 04:01:00;;;;;;;3.40;2.80;;;21.70;71.60;;;;;;5151365;27;20062;-47
2021/08/22 04:03:27;;;;;;;2.97;2.67;;;21.70;71.60;;;;;;5150660;27;20065;-44
2021/08/22 04:05:52;;;;;;;2.90;2.55;;;21.70;71.60;;;;;;5153264;27;20051;-46
2021/08/22 04:08:24;;;;;;;3.05;2.67;;;21.70;71.60;;;;;;5153277;27;20506;-44
2021/08/22 04:10:50;;;;;;;2.60;2.40;;;21.70;71.60;;;;;;5152279;27;20047;-44
2021/08/22 04:13:16;;;;;;;3.10;2.80;;;21.70;71.60;;;;;;5156849;27;20351;-47
2021/08/22 04:15:43;;;;;;;3.08;2.78;;;21.70;71.60;;;;;;5157894;27;20038;-48
2021/08/22 04:18:09;;;;;;;2.85;2.55;;;21.70;71.60;;;;;;5157096;27;20161;-48
2021/08/22 04:20:35;;;;;;;3.45;2.90;;;21.70;71.60;;;;;;5156907;27;20074;-48
2021/08/22 04:23:02;;;;;;;3.00;2.50;;;21.70;71.60;;;;;;5156309;27;20129;-47
2021/08/22 04:25:27;;;;;;;2.90;2.55;;;21.70;71.60;;;;;;5139160;27;20043;-47
2021/08/22 04:27:53;;;;;;;2.97;2.67;;;21.70;71.60;;;;;;5156465;27;20062;-47
2021/08/22 04:30:19;;;;;;;2.92;2.63;;;21.70;71.60;;;;;;5157604;27;20163;-46
2021/08/22 04:32:45;;;;;;;2.95;2.60;;;21.70;71.60;;;;;;5154127;27;20439;-44
2021/08/22 04:35:10;;;;;;;2.53;2.33;;;21.70;71.60;;;;;;5156621;27;20051;-48
2021/08/22 04:37:36;;;;;;;2.75;2.33;;;21.70;71.60;;;;;;5156044;27;20042;-47
2021/08/22 04:40:05;;;;;;;3.45;2.95;;;21.70;71.60;;;;;;5157375;27;20383;-44
2021/08/22 04:42:31;;;;;;;2.58;2.38;;;21.70;72.30;;;;;;5154085;27;20069;-44
2021/08/22 04:44:58;;;;;;;2.80;2.60;;;21.70;71.60;;;;;;5155885;27;20070;-46
2021/08/22 04:47:24;;;;;;;2.70;2.45;;;21.70;71.60;;;;;;5156129;27;20043;-48
2021/08/22 04:49:49;;;;;;;2.53;2.33;;;21.70;71.70;;;;;;5155429;27;20124;-46
2021/08/22 04:52:15;;;;;;;3.42;2.90;;;21.70;71.60;;;;;;5154568;27;20038;-44
2021/08/22 04:54:43;;;;;;;3.38;3.08;;;21.70;71.70;;;;;;5153837;27;20045;-48
2021/08/22 04:57:08;;;;;;;2.83;2.53;;;21.70;71.60;;;;;;5156208;27;20410;-47
2021/08/22 04:59:34;;;;;;;3.13;2.67;;;21.70;71.60;;;;;;5155538;27;20057;-48
2021/08/22 05:02:00;;;;;;;2.95;2.65;;;21.70;71.60;;;;;;5152998;27;20054;-45
2021/08/22 05:04:25;;;;;;;2.97;2.63;;;21.70;71.60;;;;;;5151475;27;20054;-47
2021/08/22 05:06:51;;;;;;;2.92;2.63;;;21.70;71.60;;;;;;5153336;27;20039;-46
2021/08/22 05:09:17;;;;;;;3.88;2.90;;;21.70;71.60;;;;;;5155859;27;20043;-46
2021/08/22 05:11:43;;;;;;;2.38;2.15;;;21.70;71.60;;;;;;5155328;27;20103;-46
2021/08/22 05:14:08;;;;;;;2.80;2.50;;;21.70;71.60;;;;;;5155082;27;20042;-45
2021/08/22 05:16:34;;;;;;;2.95;2.60;;;21.70;71.70;;;;;;5156653;27;20153;-47
2021/08/22 05:19:00;;;;;;;3.40;3.08;;;21.70;71.70;;;;;;5155631;27;20054;-44
2021/08/22 05:21:27;;;;;;;3.20;2.80;;;21.70;71.70;;;;;;5156424;27;20113;-46
2021/08/22 05:23:53;;;;;;;3.30;3.00;;;21.70;71.70;;;;;;5153449;27;20559;-45
2021/08/22 05:26:19;;;;;;;3.30;3.00;;;21.70;71.70;;;;;;5154125;27;20062;-45
2021/08/22 05:28:45;;;;;;;3.20;2.90;;;21.60;71.60;;;;;;5156635;27;20049;-47
2021/08/22 05:31:10;;;;;;;4.38;3.45;;;21.70;71.70;;;;;;5154680;27;20047;-48
2021/08/22 05:33:36;;;;;;;3.40;3.05;;;21.60;71.60;;;;;;5154444;27;20084;-48
2021/08/22 05:36:22;;;;;;;4.25;3.80;;;21.70;71.70;;;;;;5156149;27;20415;-46
2021/08/22 05:38:49;;;;;;;4.03;3.13;;;21.70;71.60;;;;;;5153649;27;20092;-48
2021/08/22 05:41:15;;;;;;;3.40;3.10;;;21.60;71.60;;;;;;5155478;27;20046;-47
2021/08/22 05:43:41;;;;;;;4.28;3.88;;;21.70;71.70;;;;;;5154409;27;20526;-48
2021/08/22 05:46:09;;;;;;;3.25;2.95;;;21.60;71.60;;;;;;5155999;27;20501;-46
2021/08/22 05:48:35;;;;;;;4.07;3.60;;;21.60;71.60;;;;;;5155002;27;20035;-47
2021/08/22 05:51:02;;;;;;;3.72;3.25;;;21.60;71.60;;;;;;5154789;27;20051;-49
2021/08/22 05:53:28;;;;;;;3.72;3.42;;;21.60;71.60;;;;;;5153481;27;20789;-46
2021/08/22 05:55:56;;;;;;;3.45;3.15;;;21.60;71.60;;;;;;5153075;27;20043;-45
2021/08/22 05:58:23;;;;;;;3.28;2.97;;;21.70;71.70;;;;;;5132497;27;20281;-42
2021/08/22 06:00:49;;;;;;;3.72;3.42;;;21.60;71.60;;;;;;5140603;27;20433;-48
2021/08/22 06:03:15;;;;;;;3.70;2.83;;;21.60;71.60;;;;;;5152550;27;20039;-47
2021/08/22 06:05:40;;;;;;;3.70;3.25;;;21.60;71.60;;;;;;5154714;27;20053;-48
2021/08/22 06:08:07;;;;;;;3.58;3.10;;;21.70;71.70;;;;;;5155410;27;20057;-48
2021/08/22 06:10:33;;;;;;;3.17;2.88;;;21.70;71.70;;;;;;5154008;27;20143;-48
2021/08/22 06:12:59;;;;;;;3.40;3.10;;;21.60;72.30;;;;;;5155205;27;20416;-45
2021/08/22 06:15:24;;;;;;;3.45;2.85;;;21.60;71.60;;;;;;5152747;27;20049;-44
2021/08/22 06:18:09;;;;;;;3.00;2.70;;;21.60;71.60;;;;;;5152876;27;20039;-44
2021/08/22 06:20:35;;;;;;;3.20;2.60;;;21.60;71.70;;;;;;5155087;27;20034;-46
2021/08/22 06:23:02;;;;;;;2.78;2.53;;;21.70;71.70;;;;;;5148120;27;20079;-49
2021/08/22 06:25:28;;;;;;;3.63;2.88;;;21.60;71.70;;;;;;5134630;27;20434;-42
2021/08/22 06:27:54;;;;;;;3.17;2.88;;;21.60;71.70;;;;;;5150113;27;20043;-48
2021/08/22 06:30:19;;;;;;;3.72;2.75;;;21.60;71.70;;;;;;5134441;27;20132;-49
2021/08/22 06:32:45;;;;;;;3.10;2.80;;;21.60;71.70;;;;;;5142639;27;20066;-47
2021/08/22 06:35:12;;;;;;;3.10;2.75;;;21.60;71.70;;;;;;5140401;27;20099;-48
2021/08/22 06:37:38;;;;;;;3.60;3.30;;;21.60;71.70;;;;;;5137946;27;20055;-45
2021/08/22 06:40:05;;;;;;;3.28;2.90;;;21.60;72.30;;;;;;5152852;27;20049;-47
2021/08/22 06:42:33;;;;;;;3.20;2.90;;;21.60;71.70;;;;;;5152397;27;20053;-46
2021/08/22 06:44:59;;;;;;;2.90;2.60;;;21.60;71.70;;;;;;5154593;27;20046;-49
2021/08/22 06:47:25;;;;;;;3.63;3.13;;;21.60;71.70;;;;;;5152484;27;20051;-47
2021/08/22 06:49:50;;;;;;;4.00;3.60;;;21.70;71.80;;;;;;5154420;27;20039;-44
2021/08/22 06:52:17;;;;;;;3.20;2.75;;;21.60;71.70;;;;;;5153130;27;20483;-46
2021/08/22 06:54:42;;;;;;;3.55;3.05;;;21.60;71.70;;;;;;5154256;27;20050;-48
2021/08/22 06:57:11;;;;;;;3.38;3.08;;;21.60;71.70;;;;;;5151111;27;20042;-43
2021/08/22 06:59:37;;;;;;;3.28;2.92;;;21.60;71.80;;;;;;5154395;27;20038;-44
2021/08/22 07:02:03;;;;;;;3.22;2.92;;;21.60;71.80;;;;;;5152763;27;20057;-46
2021/08/22 07:04:29;;;;;;;3.30;3.00;;;21.60;71.80;;;;;;5154491;27;20117;-43
2021/08/22 07:06:55;;;;;;;3.30;3.00;;;21.60;71.80;;;;;;5153982;27;20513;-46
2021/08/22 07:09:21;;;;;;;2.85;2.60;;;21.60;71.80;;;;;;5152951;27;20074;-48
2021/08/22 07:11:47;;;;;;;3.42;3.10;;;21.60;71.80;;;;;;5154554;27;20118;-45
2021/08/22 07:14:15;;;;;;;3.17;2.88;;;21.60;71.80;;;;;;5133770;27;20047;-49
2021/08/22 07:16:42;;;;;;;3.63;2.80;;;21.60;71.80;;;;;;5133683;27;20070;-46
2021/08/22 07:19:08;;;;;;;3.20;2.90;;;21.60;71.80;;;;;;5151538;27;20101;-44
2021/08/22 07:21:35;;;;;;;2.92;2.63;;;21.60;71.80;;;;;;5153652;27;20078;-46
2021/08/22 07:24:01;;;;;;;3.47;2.70;;;21.60;71.80;;;;;;5153873;27;20042;-47
2021/08/22 07:26:28;;;;;;;2.80;2.53;;;21.60;71.80;;;;;;5135361;27;20043;-41
2021/08/22 07:28:54;;;;;;;3.25;2.60;;;21.60;71.80;;;;;;5133875;27;20126;-46
2021/08/22 07:31:20;;;;;;;3.25;2.70;;;21.60;71.80;;;;;;5138786;27;20138;-47
2021/08/22 07:33:47;;;;;;;3.08;2.72;;;21.60;71.80;;;;;;5152703;27;20077;-43
2021/08/22 07:36:13;;;;;;;3.85;3.03;;;21.60;71.80;;;;;;5152155;27;20440;-50
2021/08/22 07:38:39;;;;;;;4.05;2.90;;;21.60;71.80;;;;;;5152973;27;20070;-47
2021/08/22 07:41:11;;;;;;;3.35;2.90;;;21.60;71.80;;;;;;5152566;27;20052;-45
2021/08/22 07:43:37;;;;;;;3.10;2.80;;;21.60;71.80;;;;;;5152667;27;20088;-45
2021/08/22 07:46:03;;;;;;;2.38;2.17;;;21.60;71.80;;;;;;5149750;27;20082;-46
2021/08/22 07:48:29;;;;;;;2.90;2.47;;;21.60;71.90;;;;;;5153078;27;20042;-48
2021/08/22 07:50:54;;;;;;;2.15;1.95;;;21.60;71.80;;;;;;5152464;27;20061;-45
2021/08/22 07:53:20;;;;;;;2.58;2.38;;;21.60;71.80;;;;;;5153082;27;20043;-44
2021/08/22 07:55:46;;;;;;;2.63;2.42;;;21.60;71.80;;;;;;5153795;27;20123;-45
2021/08/22 07:58:12;;;;;;;2.50;2.30;;;21.60;71.80;;;;;;5134198;27;20055;-49
2021/08/22 08:00:39;;;;;;;3.20;2.60;;;21.60;71.80;;;;;;5146136;27;20074;-44
2021/08/22 08:03:05;;;;;;;3.10;2.80;;;21.60;71.90;;;;;;5150954;27;20082;-42
2021/08/22 08:05:31;;;;;;;2.50;2.30;;;21.60;71.90;;;;;;5151212;27;20391;-48
2021/08/22 08:07:57;;;;;;;2.80;2.58;;;21.60;71.90;;;;;;5153579;27;20127;-42
2021/08/22 08:10:24;;;;;;;2.80;2.50;;;21.60;71.90;;;;;;5152140;27;20536;-47
2021/08/22 08:12:50;;;;;;;2.60;2.40;;;21.60;71.90;;;;;;5151750;27;20043;-46
2021/08/22 08:15:19;;;;;;;2.60;2.40;;;21.60;71.90;;;;;;5150512;27;20089;-47
2021/08/22 08:17:45;;;;;;;2.55;2.35;;;21.60;71.90;;;;;;5152613;27;20439;-43
2021/08/22 08:20:12;;;;;;;2.88;2.67;;;21.60;71.90;;;;;;5153312;27;20047;-45
2021/08/22 08:22:38;;;;;;;3.10;2.80;;;21.60;71.90;;;;;;5151211;27;20039;-43
2021/08/22 08:25:04;;;;;;;2.50;1.98;;;21.60;71.90;;;;;;5152298;27;20050;-49
2021/08/22 08:27:32;;;;;;;2.53;2.33;;;21.60;72.00;;;;;;5152192;27;20091;-44
2021/08/22 08:29:58;;;;;;;2.58;2.38;;;21.60;71.90;;;;;;5150182;27;20114;-43
2021/08/22 08:32:23;;;;;;;2.53;2.33;;;21.60;71.90;;;;;;5151048;27;20105;-44
2021/08/22 08:34:49;;;;;;;2.50;2.30;;;21.60;72.00;;;;;;5151237;27;20043;-45
2021/08/22 08:37:18;;;;;;;3.03;2.67;;;21.60;71.90;;;;;;5149857;27;20465;-48
2021/08/22 08:39:43;;;;;;;3.47;2.60;;;21.60;72.00;;;;;;5152124;27;20043;-43
2021/08/22 08:42:21;;;;;;;2.97;2.40;;;21.60;72.00;;;;;;5152421;27;20042;-43
2021/08/22 08:44:54;;;;;;;3.03;2.50;;;21.60;72.00;;;;;;5140091;27;20091;-43
2021/08/22 08:47:23;;;;;;;2.33;2.13;;;21.60;72.00;;;;;;5128540;27;20050;-45
2021/08/22 08:49:52;;;;;;;2.45;2.22;;;21.60;72.00;;;;;;5150220;27;20042;-43
2021/08/22 08:52:28;;;;;;;2.13;1.95;;;21.60;72.00;;;;;;5150072;27;20118;-44
2021/08/22 08:54:54;;;;;;;2.63;2.42;;;21.60;72.00;;;;;;5152802;27;20053;-45
2021/08/22 08:57:19;;;;;;;2.33;2.10;;;21.60;72.00;;;;;;5153171;27;20383;-48
2021/08/22 08:59:46;;;;;;;3.13;2.83;;;21.60;72.00;;;;;;5154218;27;20498;-50
2021/08/22 09:02:11;;;;;;;2.47;2.28;;;21.60;72.00;;;;;;5153356;27;20047;-48
2021/08/22 09:04:58;;;;;;;2.40;2.20;;;21.50;72.10;;;;;;5155460;27;20054;-47
2021/08/22 09:08:03;;;;;;;2.55;2.35;;;21.60;72.20;;;;;;5154132;27;20111;-50
2021/08/22 09:10:51;;;;;;;2.37;2.17;;;21.60;72.10;;;;;;5141754;27;20039;-48
2021/08/22 09:13:54;;;;;;;2.63;2.42;;;21.60;72.10;;;;;;5154423;27;20038;-44
2021/08/22 09:16:41;;;;;;;2.72;2.50;;;21.60;72.20;;;;;;5150180;27;20043;-48
2021/08/22 09:19:37;;;;;;;2.55;2.35;;;21.50;72.20;;;;;;5152131;27;20045;-46
2021/08/22 09:22:22;;;;;;;;;;;21.60;72.20;;;;;;5153834;27;20050;-45
2021/08/22 09:25:29;;;;;;;1.95;1.85;;;21.50;72.00;;;;;;5154938;27;20374;-48
2021/08/22 09:28:50;;;;;;;2.38;2.13;;;21.50;72.10;;;;;;5099022;28;20043;-48
2021/08/22 09:32:11;;;;;;;1.63;1.52;;;21.50;72.10;;;;;;5101592;28;20094;-48
2021/08/22 09:34:58;;;;;;;4.28;3.30;;;21.50;72.10;;;;;;5042057;28;20052;-45
2021/08/22 09:37:45;;;;;;;3.00;2.53;;;21.50;72.70;;;;;;5040541;28;20045;-44
2021/08/22 09:40:35;;;;;;;3.10;2.80;;;21.50;72.80;;;;;;5026077;28;20091;-48
2021/08/22 09:43:10;;;;;;;2.78;2.58;;;21.50;72.80;;;;;;5038806;28;20049;-46
2021/08/22 09:46:14;;;;;;;3.13;2.70;;;21.50;72.80;;;;;;5041674;28;20115;-46
2021/08/22 09:49:07;;;;;;;3.03;2.33;;;21.50;72.70;;;;;;5025563;28;20107;-45
2021/08/22 09:51:51;;;;;;;2.58;2.38;;;21.50;72.70;;;;;;5030566;28;20050;-41
2021/08/22 09:54:44;;;;;;;3.08;2.42;;;21.50;72.70;;;;;;5012291;28;20050;-43
2021/08/22 09:57:38;;;;;;;2.92;2.47;;;21.50;72.70;;;;;;5024601;28;20050;-43
2021/08/22 10:00:13;;;;;;;2.65;2.45;;;21.50;72.70;;;;;;5034981;28;20046;-41
2021/08/22 10:03:03;;;;;;;2.53;2.33;;;21.50;72.70;;;;;;5037180;28;20046;-42
2021/08/22 10:06:05;;;;;;;2.38;2.08;;;21.50;72.70;;;;;;5053788;28;20063;-39
2021/08/22 10:08:52;;;;;;;3.10;2.42;;;21.50;72.70;;;;;;5089504;28;20159;-42
2021/08/22 10:11:34;;;;;;;2.30;2.10;;;21.50;72.70;;;;;;5144892;27;20051;-45
2021/08/22 10:14:01;;;;;;;2.72;2.50;;;21.50;72.70;;;;;;5137575;27;20074;-42
2021/08/22 10:16:27;;;;;;;3.20;2.90;;;21.50;72.80;;;;;;5154362;27;20420;-45
2021/08/22 10:19:03;;;;;;;3.25;2.95;;;21.50;72.80;;;;;;5148075;27;20130;-44
2021/08/22 10:21:29;;;;;;;3.00;2.70;;;21.50;72.80;;;;;;5135231;27;20126;-43
2021/08/22 10:24:00;;;;;;;2.70;2.50;;;21.50;72.90;;;;;;5134307;27;20451;-43
2021/08/22 10:26:49;;;;;;;2.63;2.22;;;21.50;72.90;;;;;;5140198;27;20424;-41
2021/08/22 10:29:42;;;;;;;2.60;2.40;;;21.50;72.90;;;;;;5154262;27;20046;-48
2021/08/22 10:32:08;;;;;;;2.67;2.33;;;21.50;72.90;;;;;;5068247;28;20067;-48
2021/08/22 10:34:37;;;;;;;2.60;2.38;;;21.50;72.90;;;;;;5070598;28;20067;-48
2021/08/22 10:37:25;;;;;;;2.63;2.38;;;21.50;72.90;;;;;;5069870;28;20131;-43
2021/08/22 10:39:51;;;;;;;5.15;4.05;;;21.50;72.90;;;;;;5070538;28;20114;-46
2021/08/22 10:42:19;;;;;;;6.57;4.20;;;21.50;74.00;;;;;;5068381;28;20104;-43
2021/08/22 10:44:46;;;;;;;5.18;3.63;;;21.40;74.80;;;;;;5061319;28;20160;-45
2021/08/22 10:47:13;;;;;;;5.63;3.70;;;21.40;75.20;;;;;;5053380;28;20072;-45
2021/08/22 10:49:54;;;;;;;5.35;4.05;;;21.40;75.60;;;;;;5070601;28;20497;-43
2021/08/22 10:52:24;;;;;;;5.60;3.83;;;21.40;76.20;;;;;;5066031;28;20047;-45
2021/08/22 10:55:14;;;;;;;6.90;3.38;;;21.40;76.60;;;;;;5069073;28;20044;-44
2021/08/22 10:57:48;;;;;;;4.10;2.92;;;21.40;76.70;;;;;;5063123;28;20087;-41
2021/08/22 11:00:25;;;;;;;5.78;3.10;;;21.40;76.80;;;;;;5051563;28;20052;-49
2021/08/22 11:02:52;;;;;;;5.50;3.50;;;21.40;76.70;;;;;;5065541;28;20110;-45
2021/08/22 11:05:22;;;;;;;4.40;3.03;;;21.40;76.50;;;;;;5069600;28;20131;-48
2021/08/22 11:07:54;;;;;;;3.63;3.13;;;21.40;76.50;;;;;;5070017;28;20049;-47
2021/08/22 11:10:22;;;;;;;4.40;2.95;;;21.40;76.40;;;;;;5150834;27;20062;-47
2021/08/22 11:12:51;;;;;;;4.97;2.85;;;21.40;76.20;;;;;;5147868;27;20073;-44
2021/08/22 11:15:28;;;;;;;3.60;2.80;;;21.40;76.10;;;;;;5151816;27;20039;-47
2021/08/22 11:17:55;;;;;;;3.20;2.83;;;21.40;75.80;;;;;;5153760;27;20050;-47
2021/08/22 11:20:26;;;;;;;5.05;2.67;;;21.40;75.60;;;;;;5153896;27;20128;-45
2021/08/22 11:23:07;;;;;;;4.47;2.60;;;21.40;75.40;;;;;;5152067;27;20043;-49
2021/08/22 11:25:34;;;;;;;3.70;2.70;;;21.40;75.20;;;;;;5153462;27;20050;-48
2021/08/22 11:28:14;;;;;;;4.10;2.30;;;21.40;75.00;;;;;;5143638;27;20483;-46
2021/08/22 11:30:43;;;;;;;3.42;2.33;;;21.40;74.80;;;;;;5146413;27;20034;-45
2021/08/22 11:33:10;;;;;;;4.07;2.70;;;21.40;74.80;;;;;;5151522;27;20038;-41
2021/08/22 11:35:43;;;;;;;3.35;2.20;;;21.40;74.70;;;;;;5153688;27;20046;-46
2021/08/22 11:38:10;;;;;;;3.15;2.33;;;21.40;74.60;;;;;;5147422;27;20407;-44
2021/08/22 11:40:37;;;;;;;3.08;2.13;;;21.40;74.50;;;;;;5132611;27;20054;-45
2021/08/22 11:43:05;;;;;;;3.13;2.20;;;21.40;74.40;;;;;;5143191;27;20038;-45
2021/08/22 11:45:43;;;;;;;3.00;2.25;;;21.40;74.40;;;;;;5137505;27;20042;-46
2021/08/22 11:48:20;;;;;;;4.03;2.65;;;21.40;74.30;;;;;;5143253;27;20043;-43
2021/08/22 11:50:47;;;;;;;2.70;1.90;;;21.40;74.20;;;;;;5153235;27;20117;-44
2021/08/22 11:53:18;;;;;;;3.90;2.53;;;21.40;74.20;;;;;;5140354;27;20050;-41
2021/08/22 11:55:45;;;;;;;4.32;2.50;;;21.40;74.30;;;;;;5133797;27;20081;-44
2021/08/22 11:58:19;;;;;;;3.55;2.40;;;21.40;74.50;;;;;;5132565;27;20050;-46
2021/08/22 12:00:51;;;;;;;2.45;2.10;;;21.40;74.70;;;;;;5139578;27;20039;-46
2021/08/22 12:03:24;;;;;;;2.92;2.50;;;21.40;74.70;;;;;;5133637;27;20076;-47
2021/08/22 12:05:59;;;;;;;2.40;2.00;;;21.40;74.60;;;;;;5145247;27;20078;-47
2021/08/22 12:08:25;;;;;;;3.40;2.35;;;21.40;74.70;;;;;;5153450;27;20051;-43
2021/08/22 12:11:11;;;;;;;3.55;2.30;;;21.40;74.80;;;;;;5138729;27;20047;-43
2021/08/22 12:13:42;;;;;;;2.20;1.90;;;21.40;74.90;;;;;;5132093;28;20134;-43
2021/08/22 12:16:31;;;;;;;2.58;2.38;;;21.40;75.00;;;;;;5135463;27;20126;-42
2021/08/22 12:19:16;;;;;;;3.22;2.30;;;21.40;74.90;;;;;;5132543;28;20053;-47
2021/08/22 12:21:41;;;;;;;2.10;1.90;;;21.40;75.00;;;;;;5133435;27;20039;-41
2021/08/22 12:24:28;;;;;;;2.25;1.70;;;21.40;75.00;;;;;;5132392;27;20047;-46
2021/08/22 12:27:00;;;;;;;3.03;1.90;;;21.40;74.80;;;;;;5132747;27;20043;-45
2021/08/22 12:29:34;;;;;;;2.22;1.80;;;21.40;74.70;;;;;;5141361;27;20084;-45
2021/08/22 12:32:17;;;;;;;2.80;1.90;;;21.40;74.60;;;;;;5134041;27;20070;-40
2021/08/22 12:34:43;;;;;;;2.35;2.00;;;21.40;74.60;;;;;;5117943;27;20043;-49
2021/08/22 12:37:13;;;;;;;2.67;1.58;;;21.40;74.60;;;;;;5142037;27;20043;-47
2021/08/22 12:39:39;;;;;;;2.50;1.98;;;21.40;74.50;;;;;;5156877;27;20042;-46
2021/08/22 12:42:05;;;;;;;2.15;1.67;;;21.40;74.50;;;;;;5155111;27;20043;-49
2021/08/22 12:44:31;;;;;;;2.42;1.70;;;21.40;74.40;;;;;;5156042;27;20042;-50
2021/08/22 12:47:02;;;;;;;2.15;1.88;;;21.40;74.40;;;;;;5156799;27;20057;-49
2021/08/22 12:49:29;;;;;;;2.25;1.75;;;21.40;74.30;;;;;;5154415;27;20483;-46
2021/08/22 12:51:59;;;;;;;2.83;2.05;;;21.40;74.30;;;;;;5136917;27;20047;-49
2021/08/22 12:54:27;;;;;;;2.13;1.70;;;21.40;74.30;;;;;;5117369;27;20405;-50
2021/08/22 12:56:54;;;;;;;2.10;1.90;;;21.40;74.30;;;;;;5154770;27;20096;-48
2021/08/22 12:59:20;;;;;;;2.55;1.70;;;21.30;74.30;;;;;;5144105;27;20174;-49
2021/08/22 13:01:48;;;;;;;3.25;1.73;;;21.40;74.30;;;;;;5143233;27;20383;-49
2021/08/22 13:04:15;;;;;;;2.00;1.80;;;21.40;74.30;;;;;;5136195;27;20043;-48